createdAt,value
2023-04-08T00:01:19.607Z,100872.03
2023-04-08T00:03:46.717Z,100865.94
2023-04-08T00:06:13.735Z,100867.56
2023-04-08T00:08:40.765Z,100865.81
2023-04-08T00:11:07.646Z,100870.84
2023-04-08T00:13:34.658Z,100875.81
2023-04-08T00:16:01.722Z,100870.78
2023-04-08T00:18:29.438Z,100868.13
2023-04-08T00:20:57.396Z,100869.84
2023-04-08T00:23:24.424Z,100865.50
2023-04-08T00:25:51.518Z,100868.13
2023-04-08T00:28:18.462Z,100863.75
2023-04-08T00:30:45.841Z,100865.22
2023-04-08T00:33:12.877Z,100866.69
2023-04-08T00:35:39.875Z,100871.00
2023-04-08T00:38:08.154Z,100868.28
2023-04-08T00:40:35.278Z,100863.75
2023-04-08T00:43:02.263Z,100863.69
2023-04-08T00:45:29.355Z,100864.03
2023-04-08T00:47:56.827Z,100855.69
2023-04-08T00:50:24.368Z,100868.28
2023-04-08T00:52:51.356Z,100870.47
2023-04-08T00:55:18.302Z,100862.47
2023-04-08T00:57:46.097Z,100864.19
2023-04-08T01:00:13.979Z,100868.50
2023-04-08T01:02:59.378Z,100868.34
2023-04-08T01:05:38.943Z,100868.34
2023-04-08T01:08:06.651Z,100867.25
2023-04-08T01:10:34.652Z,100870.75
2023-04-08T01:13:06.508Z,100870.91
2023-04-08T01:15:33.619Z,100870.03
2023-04-08T01:18:00.741Z,100860.81
2023-04-08T01:20:28.922Z,100873.69
2023-04-08T01:23:00.915Z,100865.84
2023-04-08T01:25:32.295Z,100869.16
2023-04-08T01:28:00.794Z,100859.56
2023-04-08T01:30:28.610Z,100865.41
2023-04-08T01:32:57.619Z,100863.59
2023-04-08T01:35:24.641Z,100872.06
2023-04-08T01:37:51.712Z,100863.38
2023-04-08T01:40:19.096Z,100875.94
2023-04-08T01:42:49.801Z,100868.25
2023-04-08T01:45:17.103Z,100873.63
2023-04-08T01:47:47.498Z,100875.44
2023-04-08T01:50:15.643Z,100876.88
2023-04-08T01:52:46.312Z,100873.47
2023-04-08T01:55:14.338Z,100869.69
2023-04-08T01:57:42.104Z,100877.47
2023-04-08T02:00:10.322Z,100873.97
2023-04-08T02:02:47.670Z,100883.44
2023-04-08T02:05:15.103Z,100886.00
2023-04-08T02:07:42.039Z,100891.13
2023-04-08T02:10:09.852Z,100886.00
2023-04-08T02:12:36.774Z,100889.22
2023-04-08T02:15:09.085Z,100894.59
2023-04-08T02:17:45.823Z,100891.44
2023-04-08T02:20:24.394Z,100884.72
2023-04-08T02:23:11.091Z,100888.16
2023-04-08T02:25:39.034Z,100893.13
2023-04-08T02:28:07.140Z,100887.28
2023-04-08T02:30:34.265Z,100895.91
2023-04-08T02:33:01.607Z,100883.16
2023-04-08T02:35:28.556Z,100889.84
2023-04-08T02:37:55.546Z,100887.13
2023-04-08T02:40:29.712Z,100885.22
2023-04-08T02:42:56.825Z,100889.38
2023-04-08T02:45:28.228Z,100890.28
2023-04-08T02:47:55.536Z,100893.53
2023-04-08T02:50:22.704Z,100888.22
2023-04-08T02:52:49.650Z,100894.78
2023-04-08T02:55:19.819Z,100894.63
2023-04-08T02:57:47.501Z,100895.72
2023-04-08T03:00:15.053Z,100890.78
2023-04-08T03:02:42.424Z,100899.31
2023-04-08T03:05:12.631Z,100899.16
2023-04-08T03:07:39.657Z,100893.53
2023-04-08T03:10:07.279Z,100904.19
2023-04-08T03:12:34.326Z,100904.81
2023-04-08T03:15:01.917Z,100904.03
2023-04-08T03:17:35.693Z,100905.25
2023-04-08T03:20:05.037Z,100906.66
2023-04-08T03:22:32.119Z,100899.72
2023-04-08T03:24:59.104Z,100905.16
2023-04-08T03:27:26.297Z,100901.56
2023-04-08T03:29:53.418Z,100896.13
2023-04-08T03:32:20.681Z,100907.13
2023-04-08T03:34:49.730Z,100907.16
2023-04-08T03:37:17.601Z,100906.09
2023-04-08T03:39:44.488Z,100904.09
2023-04-08T03:42:11.465Z,100904.09
2023-04-08T03:44:38.458Z,100901.47
2023-04-08T03:47:05.449Z,100902.28
2023-04-08T03:49:32.364Z,100910.31
2023-04-08T03:51:59.441Z,100906.81
2023-04-08T03:54:26.401Z,100912.28
2023-04-08T03:56:53.374Z,100908.06
2023-04-08T03:59:20.495Z,100914.28
2023-04-08T04:01:47.799Z,100917.00
2023-04-08T04:04:15.069Z,100915.25
2023-04-08T04:06:42.252Z,100918.69
2023-04-08T04:09:09.302Z,100918.97
2023-04-08T04:11:36.214Z,100917.03
2023-04-08T04:14:03.616Z,100914.03
2023-04-08T04:16:32.803Z,100917.09
2023-04-08T04:19:00.390Z,100916.84
2023-04-08T04:21:27.619Z,100919.22
2023-04-08T04:23:54.567Z,100911.06
2023-04-08T04:26:21.577Z,100916.63
2023-04-08T04:28:49.252Z,100913.81
2023-04-08T04:31:21.782Z,100921.88
2023-04-08T04:33:49.219Z,100917.63
2023-04-08T04:36:16.215Z,100914.53
2023-04-08T04:38:43.571Z,100910.81
2023-04-08T04:41:10.623Z,100916.69
2023-04-08T04:43:37.951Z,100919.84
2023-04-08T04:46:07.455Z,100919.56
2023-04-08T04:48:35.357Z,100917.78
2023-04-08T04:51:07.507Z,100917.66
2023-04-08T04:53:34.582Z,100919.22
2023-04-08T04:56:02.072Z,100914.78
2023-04-08T04:58:29.727Z,100923.06
2023-04-08T05:00:56.936Z,100916.06
2023-04-08T05:03:24.087Z,100920.00
2023-04-08T05:05:52.757Z,100924.72
2023-04-08T05:08:20.156Z,100930.28
2023-04-08T05:10:47.200Z,100922.31
2023-04-08T05:13:14.129Z,100926.56
2023-04-08T05:15:41.194Z,100939.91
2023-04-08T05:18:08.319Z,100935.91
2023-04-08T05:20:35.505Z,100942.34
2023-04-08T05:23:02.500Z,100941.00
2023-04-08T05:25:30.724Z,100948.13
2023-04-08T05:27:57.755Z,100947.72
2023-04-08T05:30:24.777Z,100943.75
2023-04-08T05:32:51.925Z,100950.78
2023-04-08T05:35:18.988Z,100940.50
2023-04-08T05:37:45.887Z,100943.16
2023-04-08T05:40:12.880Z,100937.44
2023-04-08T05:42:39.808Z,100945.59
2023-04-08T05:45:07.347Z,100947.66
2023-04-08T05:47:34.350Z,100956.59
2023-04-08T05:50:01.355Z,100945.81
2023-04-08T05:52:28.485Z,100945.56
2023-04-08T05:54:55.536Z,100944.34
2023-04-08T05:57:22.364Z,100943.03
2023-04-08T05:59:49.320Z,100934.78
2023-04-08T06:02:16.351Z,100944.56
2023-04-08T06:04:43.640Z,100943.06
2023-04-08T06:07:11.076Z,100946.03
2023-04-08T06:09:38.191Z,100947.41
2023-04-08T06:12:05.471Z,100940.00
2023-04-08T06:14:32.673Z,100942.06
2023-04-08T06:16:59.881Z,100948.25
2023-04-08T06:19:26.984Z,100936.97
2023-04-08T06:21:58.836Z,100952.03
2023-04-08T06:24:27.492Z,100947.44
2023-04-08T06:26:54.461Z,100946.09
2023-04-08T06:29:24.437Z,100946.47
2023-04-08T06:31:51.607Z,100942.38
2023-04-08T06:34:18.710Z,100936.59
2023-04-08T06:36:45.773Z,100944.59
2023-04-08T06:39:13.124Z,100945.66
2023-04-08T06:41:40.151Z,100951.03
2023-04-08T06:44:19.825Z,100944.09
2023-04-08T06:46:46.944Z,100943.44
2023-04-08T06:49:13.993Z,100946.97
2023-04-08T06:51:41.002Z,100947.25
2023-04-08T06:54:10.163Z,100940.66
2023-04-08T06:56:37.578Z,100942.59
2023-04-08T06:59:07.158Z,100931.47
2023-04-08T07:01:34.441Z,100929.09
2023-04-08T07:04:02.572Z,100925.66
2023-04-08T07:06:29.573Z,100923.13
2023-04-08T07:08:56.486Z,100924.97
2023-04-08T07:11:23.456Z,100922.41
2023-04-08T07:13:50.837Z,100920.91
2023-04-08T07:16:17.877Z,100917.63
2023-04-08T07:18:44.967Z,100922.00
2023-04-08T07:21:12.736Z,100921.25
2023-04-08T07:23:39.745Z,100914.38
2023-04-08T07:26:06.785Z,100912.75
2023-04-08T07:28:33.705Z,100913.03
2023-04-08T07:31:10.546Z,100920.13
2023-04-08T07:33:37.399Z,100920.28
2023-04-08T07:36:04.467Z,100900.38
2023-04-08T07:38:31.690Z,100910.91
2023-04-08T07:40:58.672Z,100915.31
2023-04-08T07:43:25.742Z,100913.66
2023-04-08T07:45:52.905Z,100905.00
2023-04-08T07:48:19.890Z,100901.47
2023-04-08T07:51:09.255Z,100909.31
2023-04-08T07:53:34.576Z,100906.72
2023-04-08T07:56:01.691Z,100907.72
2023-04-08T07:58:28.898Z,100917.34
2023-04-08T08:00:57.707Z,100911.28
2023-04-08T08:03:25.719Z,100911.25
2023-04-08T08:05:54.205Z,100907.72
2023-04-08T08:08:21.386Z,100906.78
2023-04-08T08:10:48.218Z,100906.72
2023-04-08T08:13:17.340Z,100918.00
2023-04-08T08:15:44.401Z,100905.84
2023-04-08T08:18:11.581Z,100911.91
2023-04-08T08:20:38.688Z,100914.47
2023-04-08T08:23:05.670Z,100913.53
2023-04-08T08:25:32.578Z,100908.25
2023-04-08T08:27:59.454Z,100910.84
2023-04-08T08:30:27.130Z,100922.97
2023-04-08T08:32:54.252Z,100914.34
2023-04-08T08:35:21.211Z,100916.16
2023-04-08T08:37:48.287Z,100910.19
2023-04-08T08:40:15.943Z,100910.22
2023-04-08T08:42:43.087Z,100909.41
2023-04-08T08:45:10.449Z,100909.41
2023-04-08T08:47:37.375Z,100907.66
2023-04-08T08:50:05.205Z,100912.94
2023-04-08T08:52:32.255Z,100912.09
2023-04-08T08:54:59.431Z,100905.16
2023-04-08T08:57:27.217Z,100904.25
2023-04-08T08:59:54.356Z,100910.28
2023-04-08T09:02:29.030Z,100908.41
2023-04-08T09:04:58.280Z,100906.59
2023-04-08T09:07:26.859Z,100906.56
2023-04-08T09:09:54.556Z,100910.88
2023-04-08T09:12:21.628Z,100909.16
2023-04-08T09:14:48.644Z,100916.09
2023-04-08T09:17:16.397Z,100913.41
2023-04-08T09:20:12.251Z,100916.03
2023-04-08T09:23:02.707Z,100910.84
2023-04-08T09:25:32.269Z,100911.78
2023-04-08T09:27:59.706Z,100906.59
2023-04-08T09:30:27.549Z,100903.16
2023-04-08T09:32:56.524Z,100896.28
2023-04-08T09:35:24.160Z,100900.75
2023-04-08T09:37:51.315Z,100899.13
2023-04-08T09:40:18.447Z,100887.03
2023-04-08T09:42:48.762Z,100897.47
2023-04-08T09:45:16.261Z,100892.31
2023-04-08T09:47:50.561Z,100901.06
2023-04-08T09:50:17.626Z,100896.72
2023-04-08T09:52:45.642Z,100899.34
2023-04-08T09:55:13.350Z,100895.84
2023-04-08T09:58:02.271Z,100893.25
2023-04-08T10:00:32.537Z,100892.41
2023-04-08T10:03:08.387Z,100895.88
2023-04-08T10:05:39.744Z,100896.75
2023-04-08T10:08:07.100Z,100895.84
2023-04-08T10:10:39.629Z,100897.59
2023-04-08T10:13:07.193Z,100893.25
2023-04-08T10:15:34.900Z,100895.00
2023-04-08T10:18:07.943Z,100894.13
2023-04-08T10:20:35.165Z,100888.03
2023-04-08T10:23:02.710Z,100888.03
2023-04-08T10:25:32.729Z,100895.00
2023-04-08T10:28:00.738Z,100886.28
2023-04-08T10:30:27.734Z,100889.75
2023-04-08T10:32:56.951Z,100890.63
2023-04-08T10:35:30.539Z,100891.50
2023-04-08T10:37:58.608Z,100889.75
2023-04-08T10:40:25.836Z,100882.78
2023-04-08T10:42:58.605Z,100873.25
2023-04-08T10:45:25.669Z,100880.19
2023-04-08T10:47:52.657Z,100871.47
2023-04-08T10:50:20.125Z,100876.69
2023-04-08T10:52:50.976Z,100872.34
2023-04-08T10:55:27.448Z,100869.75
2023-04-08T10:57:55.860Z,100868.91
2023-04-08T11:00:38.291Z,100870.63
2023-04-08T11:03:06.711Z,100864.53
2023-04-08T11:05:34.517Z,100859.34
2023-04-08T11:08:01.666Z,100856.75
2023-04-08T11:10:32.082Z,100859.34
2023-04-08T11:12:59.032Z,100859.34
2023-04-08T11:15:26.340Z,100861.09
2023-04-08T11:17:56.633Z,100850.66
2023-04-08T11:20:23.699Z,100848.91
2023-04-08T11:22:50.829Z,100861.09
2023-04-08T11:25:17.752Z,100842.81
2023-04-08T11:27:45.113Z,100850.63
2023-04-08T11:30:12.320Z,100844.53
2023-04-08T11:32:39.295Z,100846.22
2023-04-08T11:35:06.468Z,100845.38
2023-04-08T11:37:40.500Z,100840.16
2023-04-08T11:40:11.689Z,100834.06
2023-04-08T11:42:39.989Z,100834.03
2023-04-08T11:45:11.098Z,100833.97
2023-04-08T11:47:38.088Z,100831.34
2023-04-08T11:50:05.461Z,100827.84
2023-04-08T11:52:48.652Z,100826.97
2023-04-08T11:55:25.533Z,100826.97
2023-04-08T11:57:52.876Z,100827.00
2023-04-08T12:00:20.352Z,100815.69
2023-04-08T12:02:48.172Z,100822.66
2023-04-08T12:05:16.148Z,100825.28
2023-04-08T12:07:43.406Z,100819.22
2023-04-08T12:10:11.491Z,100814.03
2023-04-08T12:12:39.131Z,100821.84
2023-04-08T12:15:06.911Z,100814.84
2023-04-08T12:17:34.043Z,100813.13
2023-04-08T12:20:01.646Z,100805.34
2023-04-08T12:22:30.384Z,100807.94
2023-04-08T12:24:59.238Z,100818.41
2023-04-08T12:27:26.505Z,100813.19
2023-04-08T12:29:53.630Z,100814.97
2023-04-08T12:32:20.732Z,100807.09
2023-04-08T12:34:47.744Z,100806.25
2023-04-08T12:37:14.649Z,100805.34
2023-04-08T12:39:42.080Z,100814.06
2023-04-08T12:42:09.247Z,100808.00
2023-04-08T12:44:36.219Z,100803.63
2023-04-08T12:47:03.207Z,100801.03
2023-04-08T12:49:30.910Z,100801.91
2023-04-08T12:52:01.425Z,100798.41
2023-04-08T12:54:28.561Z,100793.19
2023-04-08T12:56:57.071Z,100793.19
2023-04-08T12:59:24.150Z,100790.59
2023-04-08T13:01:54.291Z,100792.38
2023-04-08T13:04:21.528Z,100788.88
2023-04-08T13:06:48.587Z,100786.28
2023-04-08T13:09:15.673Z,100784.53
2023-04-08T13:11:42.524Z,100782.78
2023-04-08T13:14:09.466Z,100781.06
2023-04-08T13:16:37.300Z,100781.03
2023-04-08T13:19:04.261Z,100779.34
2023-04-08T13:21:31.743Z,100775.81
2023-04-08T13:23:58.699Z,100772.34
2023-04-08T13:26:26.672Z,100774.13
2023-04-08T13:28:57.345Z,100775.84
2023-04-08T13:31:25.539Z,100772.38
2023-04-08T13:33:54.569Z,100769.78
2023-04-08T13:36:23.411Z,100777.59
2023-04-08T13:38:50.658Z,100762.78
2023-04-08T13:41:17.917Z,100765.38
2023-04-08T13:43:44.879Z,100774.03
2023-04-08T13:46:11.961Z,100760.97
2023-04-08T13:48:38.880Z,100763.56
2023-04-08T13:51:05.848Z,100763.53
2023-04-08T13:53:32.830Z,100756.50
2023-04-08T13:55:59.877Z,100754.72
2023-04-08T13:58:27.235Z,100757.31
2023-04-08T14:00:54.381Z,100752.97
2023-04-08T14:03:21.556Z,100761.59
2023-04-08T14:05:49.121Z,100750.31
2023-04-08T14:08:16.163Z,100753.81
2023-04-08T14:10:43.035Z,100750.34
2023-04-08T14:13:10.088Z,100758.13
2023-04-08T14:15:37.055Z,100745.09
2023-04-08T14:18:04.070Z,100746.75
2023-04-08T14:20:31.319Z,100752.78
2023-04-08T14:22:58.306Z,100746.63
2023-04-08T14:25:25.843Z,100749.16
2023-04-08T14:27:58.465Z,100743.91
2023-04-08T14:30:27.244Z,100750.81
2023-04-08T14:32:54.955Z,100741.19
2023-04-08T14:35:22.118Z,100742.03
2023-04-08T14:37:49.082Z,100745.44
2023-04-08T14:40:16.052Z,100740.19
2023-04-08T14:42:44.548Z,100739.28
2023-04-08T14:45:11.602Z,100736.66
2023-04-08T14:47:38.630Z,100735.66
2023-04-08T14:50:06.306Z,100735.63
2023-04-08T14:52:33.222Z,100734.72
2023-04-08T14:55:00.513Z,100726.88
2023-04-08T14:57:27.451Z,100732.91
2023-04-08T14:59:54.522Z,100740.63
2023-04-08T15:02:21.548Z,100736.25
2023-04-08T15:04:48.497Z,100733.59
2023-04-08T15:07:15.833Z,100734.38
2023-04-08T15:09:42.721Z,100730.00
2023-04-08T15:12:09.639Z,100732.53
2023-04-08T15:14:36.656Z,100730.78
2023-04-08T15:17:03.699Z,100735.03
2023-04-08T15:19:30.750Z,100735.84
2023-04-08T15:21:57.784Z,100731.44
2023-04-08T15:24:24.756Z,100729.59
2023-04-08T15:26:51.776Z,100737.31
2023-04-08T15:29:18.617Z,100735.47
2023-04-08T15:31:45.913Z,100738.00
2023-04-08T15:34:12.920Z,100736.16
2023-04-08T15:36:39.983Z,100729.16
2023-04-08T15:39:07.049Z,100729.06
2023-04-08T15:41:33.926Z,100735.91
2023-04-08T15:44:01.134Z,100734.91
2023-04-08T15:46:28.023Z,100734.84
2023-04-08T15:48:55.204Z,100733.88
2023-04-08T15:51:22.370Z,100732.94
2023-04-08T15:53:51.576Z,100738.03
2023-04-08T15:56:18.792Z,100737.09
2023-04-08T15:58:46.217Z,100749.94
2023-04-08T16:01:13.488Z,100749.00
2023-04-08T16:03:41.124Z,100750.69
2023-04-08T16:06:08.713Z,100752.28
2023-04-08T16:08:35.805Z,100751.38
2023-04-08T16:11:04.025Z,100749.56
2023-04-08T16:13:31.024Z,100752.97
2023-04-08T16:15:58.726Z,100752.91
2023-04-08T16:18:26.117Z,100754.59
2023-04-08T16:20:53.325Z,100751.94
2023-04-08T16:23:20.661Z,100753.56
2023-04-08T16:25:47.673Z,100756.91
2023-04-08T16:28:14.657Z,100761.13
2023-04-08T16:30:44.419Z,100759.31
2023-04-08T16:33:11.515Z,100755.81
2023-04-08T16:35:38.687Z,100760.09
2023-04-08T16:38:06.311Z,100761.72
2023-04-08T16:40:33.708Z,100769.47
2023-04-08T16:43:01.280Z,100771.97
2023-04-08T16:45:29.601Z,100772.78
2023-04-08T16:47:57.020Z,100775.31
2023-04-08T16:50:24.146Z,100774.38
2023-04-08T16:52:51.156Z,100776.81
2023-04-08T16:55:18.370Z,100778.44
2023-04-08T16:57:45.758Z,100784.41
2023-04-08T17:00:13.210Z,100786.00
2023-04-08T17:02:40.513Z,100785.09
2023-04-08T17:05:08.142Z,100788.47
2023-04-08T17:07:35.123Z,100788.38
2023-04-08T17:10:02.292Z,100789.16
2023-04-08T17:12:30.491Z,100792.44
2023-04-08T17:14:57.417Z,100783.66
2023-04-08T17:17:24.418Z,100793.84
2023-04-08T17:19:51.992Z,100789.44
2023-04-08T17:22:18.968Z,100795.31
2023-04-08T17:24:47.870Z,100796.06
2023-04-08T17:27:15.157Z,100794.34
2023-04-08T17:29:42.096Z,100797.69
2023-04-08T17:32:09.192Z,100794.13
2023-04-08T17:34:37.102Z,100794.00
2023-04-08T17:37:05.356Z,100804.22
2023-04-08T17:39:32.422Z,100801.50
2023-04-08T17:41:59.528Z,100792.78
2023-04-08T17:44:30.050Z,100796.13
2023-04-08T17:46:57.444Z,100801.34
2023-04-08T17:49:24.513Z,100802.03
2023-04-08T17:51:51.489Z,100798.44
2023-04-08T17:54:18.527Z,100803.44
2023-04-08T17:56:46.691Z,100804.16
2023-04-08T17:59:15.418Z,100807.50
2023-04-08T18:01:42.490Z,100799.66
2023-04-08T18:04:10.568Z,100804.72
2023-04-08T18:06:37.645Z,100805.50
2023-04-08T18:09:04.718Z,100795.09
2023-04-08T18:11:31.749Z,100801.06
2023-04-08T18:13:58.819Z,100794.03
2023-04-08T18:16:25.762Z,100794.88
2023-04-08T18:18:54.111Z,100799.16
2023-04-08T18:21:22.139Z,100788.66
2023-04-08T18:23:49.853Z,100795.53
2023-04-08T18:26:17.286Z,100801.47
2023-04-08T18:28:44.414Z,100794.53
2023-04-08T18:31:11.390Z,100795.31
2023-04-08T18:33:39.256Z,100791.72
2023-04-08T18:36:10.563Z,100788.16
2023-04-08T18:38:38.168Z,100791.53
2023-04-08T18:41:05.910Z,100793.13
2023-04-08T18:43:33.329Z,100793.75
2023-04-08T18:46:00.474Z,100792.78
2023-04-08T18:48:27.490Z,100786.63
2023-04-08T18:50:54.621Z,100789.09
2023-04-08T18:53:22.752Z,100799.34
2023-04-08T18:55:51.296Z,100797.50
2023-04-08T18:58:18.344Z,100798.19
2023-04-08T19:00:45.564Z,100801.53
2023-04-08T19:03:12.761Z,100797.16
2023-04-08T19:05:39.860Z,100797.06
2023-04-08T19:08:06.802Z,100808.16
2023-04-08T19:10:33.897Z,100795.03
2023-04-08T19:13:01.397Z,100794.06
2023-04-08T19:15:31.143Z,100794.88
2023-04-08T19:17:59.076Z,100797.34
2023-04-08T19:20:27.322Z,100801.41
2023-04-08T19:22:55.964Z,100795.09
2023-04-08T19:25:22.987Z,100799.19
2023-04-08T19:27:49.953Z,100811.94
2023-04-08T19:30:16.863Z,100800.50
2023-04-08T19:32:44.001Z,100798.53
2023-04-08T19:35:14.012Z,100804.28
2023-04-08T19:37:41.172Z,100803.19
2023-04-08T19:40:08.653Z,100803.88
2023-04-08T19:42:36.476Z,100806.28
2023-04-08T19:45:03.873Z,100801.81
2023-04-08T19:47:30.933Z,100806.84
2023-04-08T19:49:58.422Z,100811.91
2023-04-08T19:52:25.833Z,100813.56
2023-04-08T19:54:53.289Z,100811.69
2023-04-08T19:57:20.675Z,100818.38
2023-04-08T19:59:50.604Z,100808.75
2023-04-08T20:02:17.760Z,100810.50
2023-04-08T20:04:45.669Z,100816.41
2023-04-08T20:07:13.305Z,100817.06
2023-04-08T20:09:40.572Z,100821.09
2023-04-08T20:12:07.495Z,100816.50
2023-04-08T20:14:35.969Z,100824.09
2023-04-08T20:17:03.210Z,100827.44
2023-04-08T20:19:30.558Z,100824.81
2023-04-08T20:21:57.827Z,100818.63
2023-04-08T20:24:24.865Z,100821.03
2023-04-08T20:26:52.563Z,100820.88
2023-04-08T20:29:19.578Z,100819.00
2023-04-08T20:31:46.994Z,100828.34
2023-04-08T20:34:14.104Z,100829.09
2023-04-08T20:36:41.252Z,100822.97
2023-04-08T20:39:12.018Z,100828.97
2023-04-08T20:41:39.041Z,100829.06
2023-04-08T20:44:10.653Z,100834.09
2023-04-08T20:46:38.192Z,100821.22
2023-04-08T20:49:05.531Z,100817.84
2023-04-08T20:51:35.232Z,100823.84
2023-04-08T20:54:02.473Z,100817.88
2023-04-08T20:56:29.690Z,100821.22
2023-04-08T20:58:59.692Z,100821.84
2023-04-08T21:01:27.494Z,100819.06
2023-04-08T21:03:54.836Z,100817.25
2023-04-08T21:06:22.136Z,100815.38
2023-04-08T21:08:49.783Z,100813.47
2023-04-08T21:11:17.184Z,100819.47
2023-04-08T21:13:45.536Z,100822.13
2023-04-08T21:16:14.354Z,100824.00
2023-04-08T21:18:41.336Z,100824.22
2023-04-08T21:21:10.066Z,100835.84
2023-04-08T21:23:37.064Z,100831.97
2023-04-08T21:26:04.151Z,100827.22
2023-04-08T21:28:31.353Z,100824.16
2023-04-08T21:31:08.098Z,100835.50
2023-04-08T21:33:35.176Z,100836.78
2023-04-08T21:36:02.404Z,100840.84
2023-04-08T21:38:29.426Z,100834.06
2023-04-08T21:40:56.421Z,100842.28
2023-04-08T21:43:23.440Z,100839.06
2023-04-08T21:45:50.386Z,100839.06
2023-04-08T21:48:17.355Z,100842.13
2023-04-08T21:50:45.648Z,100839.13
2023-04-08T21:53:12.641Z,100837.22
2023-04-08T21:55:39.502Z,100846.59
2023-04-08T21:58:06.487Z,100848.44
2023-04-08T22:00:33.552Z,100843.56
2023-04-08T22:03:00.650Z,100842.94
2023-04-08T22:05:27.793Z,100843.75
2023-04-08T22:07:55.035Z,100849.03
2023-04-08T22:10:22.041Z,100846.44
2023-04-08T22:12:48.967Z,100853.28
2023-04-08T22:15:15.853Z,100849.72
2023-04-08T22:17:42.981Z,100848.94
2023-04-08T22:20:10.634Z,100852.41
2023-04-08T22:22:37.726Z,100848.78
2023-04-08T22:25:05.352Z,100850.91
2023-04-08T22:27:32.359Z,100851.41
2023-04-08T22:29:59.366Z,100847.06
2023-04-08T22:32:26.558Z,100846.22
2023-04-08T22:34:53.436Z,100841.91
2023-04-08T22:37:20.438Z,100841.84
2023-04-08T22:39:47.457Z,100843.91
2023-04-08T22:42:14.395Z,100847.63
2023-04-08T22:44:41.436Z,100845.88
2023-04-08T22:47:08.302Z,100840.13
2023-04-08T22:49:35.596Z,100840.84
2023-04-08T22:52:02.523Z,100848.97
2023-04-08T22:54:29.421Z,100839.84
2023-04-08T22:56:56.677Z,100843.09
2023-04-08T22:59:23.663Z,100844.03
2023-04-08T23:01:50.818Z,100839.84
2023-04-08T23:04:17.897Z,100836.13
2023-04-08T23:06:44.861Z,100836.09
2023-04-08T23:09:11.860Z,100838.44
2023-04-08T23:11:38.883Z,100844.41
2023-04-08T23:14:05.954Z,100843.59
2023-04-08T23:16:33.039Z,100845.72
2023-04-08T23:19:00.010Z,100839.28
2023-04-08T23:21:27.124Z,100838.81
2023-04-08T23:23:54.101Z,100838.16
2023-04-08T23:26:21.319Z,100838.41
2023-04-08T23:28:48.246Z,100840.28
2023-04-08T23:31:15.450Z,100844.66
2023-04-08T23:33:42.516Z,100838.41
2023-04-08T23:36:12.858Z,100839.50
2023-04-08T23:38:39.935Z,100846.78
2023-04-08T23:41:07.037Z,100842.09
2023-04-08T23:43:34.309Z,100847.66
2023-04-08T23:46:01.291Z,100846.84
2023-04-08T23:48:28.204Z,100846.22
2023-04-08T23:50:55.287Z,100850.72
2023-04-08T23:53:22.239Z,100846.59
2023-04-08T23:55:49.162Z,100851.75
2023-04-08T23:58:16.321Z,100849.31
